Time;durP1;ratioP1;P1;durP2;ratioP2;P2;SDS_P1;SDS_P2;PMS_P1;PMS_P2;Temp;Humidity;BMP_temperature;BMP_pressure;BME280_temperature;BME280_humidity;BME280_pressure;Samples;Min_cycle;Max_cycle;Signal;HPM_P1;HPM_P2
2023/11/10 00:01:41;;;;;;;1.05;0.85;;;;;;;;;;5075533;28;20052;-82
2023/11/10 00:04:07;;;;;;;1.52;1.02;;;;;;;;;;5078757;28;20017;-82
2023/11/10 00:06:35;;;;;;;1.00;0.77;;;;;;;;;;5080409;28;20039;-81
2023/11/10 00:09:01;;;;;;;1.40;0.90;;;;;;;;;;5049338;28;20017;-82
2023/11/10 00:11:27;;;;;;;1.33;0.90;;;;;;;;;;5041656;28;20052;-81
2023/11/10 00:13:53;;;;;;;0.88;0.88;;;;;;;;;;5058560;28;20025;-81
2023/11/10 00:16:20;;;;;;;0.82;0.80;;;;;;;;;;5076498;28;20074;-82
2023/11/10 00:18:46;;;;;;;2.00;1.30;;;;;;;;;;5061105;28;20048;-80
2023/11/10 00:21:23;;;;;;;1.23;1.00;;;;;;;;;;5042133;28;20025;-81
2023/11/10 00:23:49;;;;;;;1.25;0.88;;;;;;;;;;5080023;28;20020;-79
2023/11/10 00:26:22;;;;;;;0.60;0.50;;;;;;;;;;5087741;28;20108;-81
2023/11/10 00:28:48;;;;;;;0.70;0.70;;;;;;;;;;5081148;28;20016;-83
2023/11/10 00:31:15;;;;;;;0.98;0.90;;;;;;;;;;5062965;28;20027;-83
2023/11/10 00:33:41;;;;;;;0.70;0.70;;;;;;;;;;5071794;28;20068;-82
2023/11/10 00:36:07;;;;;;;0.50;0.50;;;;;;;;;;5062238;28;20401;-82
2023/11/10 00:38:33;;;;;;;1.80;0.70;;;;;;;;;;5063166;28;20047;-81
2023/11/10 00:40:59;;;;;;;1.20;0.80;;;;;;;;;;5064017;28;20020;-82
2023/11/10 00:43:26;;;;;;;0.95;0.95;;;;;;;;;;5063834;28;20037;-82
2023/11/10 00:45:54;;;;;;;0.80;0.80;;;;;;;;;;5063671;28;20021;-82
2023/11/10 00:48:20;;;;;;;0.80;0.60;;;;;;;;;;5064476;28;20067;-82
2023/11/10 00:50:46;;;;;;;0.60;0.60;;;;;;;;;;5063443;28;20020;-82
2023/11/10 00:53:13;;;;;;;0.68;0.68;;;;;;;;;;5073067;28;20032;-82
2023/11/10 00:55:39;;;;;;;0.88;0.88;;;;;;;;;;5077245;28;20017;-82
2023/11/10 00:58:05;;;;;;;0.68;0.40;;;;;;;;;;5076202;28;20021;-80
2023/11/10 01:00:31;;;;;;;1.60;0.60;;;;;;;;;;5071432;28;20047;-82
2023/11/10 01:02:57;;;;;;;0.50;0.50;;;;;;;;;;5062211;28;20042;-82
2023/11/10 01:05:24;;;;;;;1.00;0.90;;;;;;;;;;5070431;28;20017;-81
2023/11/10 01:07:51;;;;;;;0.65;0.65;;;;;;;;;;5070370;28;20024;-82
2023/11/10 01:10:17;;;;;;;0.80;0.80;;;;;;;;;;5057390;28;20095;-82
2023/11/10 01:12:43;;;;;;;0.98;0.70;;;;;;;;;;5078065;28;20020;-82
2023/11/10 01:15:11;;;;;;;0.70;0.65;;;;;;;;;;5077096;28;20024;-82
2023/11/10 01:17:39;;;;;;;0.45;0.45;;;;;;;;;;5075383;28;20044;-82
2023/11/10 01:20:10;;;;;;;0.50;0.50;;;;;;;;;;5060165;28;20013;-82
2023/11/10 01:22:36;;;;;;;1.00;0.82;;;;;;;;;;5060483;28;20029;-83
2023/11/10 01:25:03;;;;;;;0.40;0.40;;;;;;;;;;5067692;28;20072;-83
2023/11/10 01:27:32;;;;;;;0.60;0.60;;;;;;;;;;5079703;28;20025;-81
2023/11/10 01:29:59;;;;;;;0.47;0.47;;;;;;;;;;5056044;28;20096;-83
2023/11/10 01:32:25;;;;;;;0.50;0.50;;;;;;;;;;5086866;28;20021;-79
2023/11/10 01:34:51;;;;;;;0.65;0.60;;;;;;;;;;5064982;28;20068;-81
2023/11/10 01:37:17;;;;;;;0.75;0.75;;;;;;;;;;5084527;28;20028;-82
2023/11/10 01:39:44;;;;;;;0.80;0.80;;;;;;;;;;5079553;28;20029;-83
2023/11/10 01:42:11;;;;;;;0.60;0.60;;;;;;;;;;5076213;28;20078;-81
2023/11/10 01:44:37;;;;;;;1.02;0.70;;;;;;;;;;5059171;28;20017;-82
2023/11/10 01:47:03;;;;;;;0.73;0.73;;;;;;;;;;5070582;28;20032;-81
2023/11/10 01:49:30;;;;;;;0.73;0.73;;;;;;;;;;5072112;28;20052;-81
2023/11/10 01:51:56;;;;;;;0.55;0.30;;;;;;;;;;5066171;28;20020;-83
2023/11/10 01:54:24;;;;;;;0.70;0.70;;;;;;;;;;5091741;28;20033;-82
2023/11/10 01:56:51;;;;;;;0.40;0.40;;;;;;;;;;5083010;28;20050;-82
2023/11/10 01:59:17;;;;;;;0.70;0.70;;;;;;;;;;5099857;28;20005;-83
2023/11/10 02:01:45;;;;;;;0.60;0.60;;;;;;;;;;5082730;28;20032;-81
2023/11/10 02:04:16;;;;;;;1.23;0.90;;;;;;;;;;5099794;28;20036;-83
2023/11/10 02:06:43;;;;;;;0.60;0.60;;;;;;;;;;5086188;28;20034;-82
2023/11/10 02:09:09;;;;;;;0.60;0.60;;;;;;;;;;5094289;28;20025;-81
2023/11/10 02:11:38;;;;;;;0.73;0.73;;;;;;;;;;5081465;28;20379;-81
2023/11/10 02:14:04;;;;;;;0.60;0.60;;;;;;;;;;5055564;28;20088;-80
2023/11/10 02:16:30;;;;;;;0.80;0.80;;;;;;;;;;5074464;28;20081;-81
2023/11/10 02:18:57;;;;;;;0.70;0.70;;;;;;;;;;5093809;28;20108;-82
2023/11/10 02:21:23;;;;;;;0.68;0.68;;;;;;;;;;5079244;28;20028;-83
2023/11/10 02:23:50;;;;;;;0.75;0.75;;;;;;;;;;5066520;28;20025;-83
2023/11/10 02:26:16;;;;;;;0.88;0.88;;;;;;;;;;5080260;28;20073;-81
2023/11/10 02:28:42;;;;;;;0.70;0.70;;;;;;;;;;5051349;28;20031;-81
2023/11/10 02:31:08;;;;;;;0.70;0.70;;;;;;;;;;5079887;28;20016;-81
2023/11/10 02:33:34;;;;;;;0.75;0.73;;;;;;;;;;5049323;28;20089;-82
2023/11/10 02:36:01;;;;;;;1.60;0.80;;;;;;;;;;5071864;28;20095;-81
2023/11/10 02:38:27;;;;;;;0.90;0.85;;;;;;;;;;5076854;28;20016;-82
2023/11/10 02:40:53;;;;;;;1.08;0.98;;;;;;;;;;5075549;28;20020;-82
2023/11/10 02:43:19;;;;;;;0.80;0.80;;;;;;;;;;5061103;28;20120;-82
2023/11/10 02:45:45;;;;;;;1.40;1.05;;;;;;;;;;5076907;28;20028;-81
2023/11/10 02:48:12;;;;;;;1.02;0.90;;;;;;;;;;5059794;28;20407;-82
2023/11/10 02:50:38;;;;;;;1.20;0.90;;;;;;;;;;5049016;28;20041;-82
2023/11/10 02:53:04;;;;;;;1.92;1.20;;;;;;;;;;5064358;28;20031;-81
2023/11/10 02:55:30;;;;;;;1.15;1.02;;;;;;;;;;5085630;28;20355;-81
2023/11/10 02:57:56;;;;;;;3.13;1.83;;;;;;;;;;5077267;28;20020;-82
2023/11/10 03:00:22;;;;;;;2.53;1.20;;;;;;;;;;5070667;28;20046;-81
2023/11/10 03:02:49;;;;;;;0.90;0.90;;;;;;;;;;5059399;28;20069;-82
2023/11/10 03:05:15;;;;;;;1.15;1.05;;;;;;;;;;5068109;28;20028;-81
2023/11/10 03:07:41;;;;;;;1.17;1.00;;;;;;;;;;5072872;28;20043;-81
2023/11/10 03:10:08;;;;;;;0.70;0.70;;;;;;;;;;5075685;28;20074;-80
2023/11/10 03:12:35;;;;;;;0.75;0.75;;;;;;;;;;5065550;28;20027;-82
2023/11/10 03:15:01;;;;;;;1.08;0.98;;;;;;;;;;5037579;28;20033;-80
2023/11/10 03:17:30;;;;;;;1.13;0.90;;;;;;;;;;5057234;28;20028;-81
2023/11/10 03:19:57;;;;;;;1.52;1.10;;;;;;;;;;5076111;28;20021;-81
2023/11/10 03:22:23;;;;;;;0.80;0.80;;;;;;;;;;5067368;28;20027;-81
2023/11/10 03:24:50;;;;;;;0.70;0.70;;;;;;;;;;5051769;28;20017;-82
2023/11/10 03:27:16;;;;;;;0.75;0.75;;;;;;;;;;5069350;28;20119;-81
2023/11/10 03:29:43;;;;;;;0.70;0.60;;;;;;;;;;5076480;28;20024;-82
2023/11/10 03:32:09;;;;;;;1.38;0.88;;;;;;;;;;5059017;28;20505;-82
2023/11/10 03:34:42;;;;;;;1.40;0.70;;;;;;;;;;5060808;28;20108;-82
2023/11/10 03:37:11;;;;;;;1.05;0.80;;;;;;;;;;5074846;28;20053;-81
2023/11/10 03:39:38;;;;;;;0.50;0.50;;;;;;;;;;5051389;28;20041;-81
2023/11/10 03:42:04;;;;;;;0.70;0.70;;;;;;;;;;5075638;28;20159;-81
2023/11/10 03:44:30;;;;;;;0.75;0.70;;;;;;;;;;5065203;28;20024;-83
2023/11/10 03:46:58;;;;;;;0.57;0.57;;;;;;;;;;5056614;28;20122;-83
2023/11/10 03:49:25;;;;;;;0.85;0.70;;;;;;;;;;5064699;28;20035;-82
2023/11/10 03:51:51;;;;;;;0.60;0.60;;;;;;;;;;5049545;28;20048;-82
2023/11/10 03:54:17;;;;;;;0.40;0.40;;;;;;;;;;5077543;28;20020;-85
2023/11/10 03:56:43;;;;;;;0.50;0.50;;;;;;;;;;5090213;28;20048;-82
2023/11/10 03:59:10;;;;;;;0.52;0.52;;;;;;;;;;5070867;28;20055;-81
2023/11/10 04:01:37;;;;;;;1.05;0.60;;;;;;;;;;5050296;28;20025;-81
2023/11/10 04:04:03;;;;;;;0.63;0.57;;;;;;;;;;5058995;28;20537;-83
2023/11/10 04:06:30;;;;;;;0.30;0.30;;;;;;;;;;5050444;28;20025;-82
2023/11/10 04:08:56;;;;;;;0.50;0.40;;;;;;;;;;5045599;28;20175;-82
2023/11/10 04:11:22;;;;;;;0.45;0.43;;;;;;;;;;5047852;28;20024;-82
2023/11/10 04:13:49;;;;;;;0.52;0.50;;;;;;;;;;5049696;28;20017;-82
2023/11/10 04:16:20;;;;;;;0.55;0.55;;;;;;;;;;5077388;28;20041;-82
2023/11/10 04:18:47;;;;;;;1.00;0.60;;;;;;;;;;5073150;28;20087;-81
2023/11/10 04:21:14;;;;;;;0.55;0.50;;;;;;;;;;5072927;28;20487;-81
2023/11/10 04:23:43;;;;;;;0.60;0.60;;;;;;;;;;5065391;28;20080;-82
2023/11/10 04:26:13;;;;;;;0.80;0.68;;;;;;;;;;5053711;28;20099;-83
2023/11/10 04:28:39;;;;;;;0.70;0.70;;;;;;;;;;5064283;28;20040;-83
2023/11/10 04:31:06;;;;;;;0.63;0.63;;;;;;;;;;5076826;28;20437;-83
2023/11/10 04:33:33;;;;;;;0.60;0.50;;;;;;;;;;5080809;28;20032;-82
2023/11/10 04:36:12;;;;;;;0.80;0.50;;;;;;;;;;5053750;28;20067;-83
2023/11/10 04:38:39;;;;;;;0.45;0.40;;;;;;;;;;5068624;28;20040;-83
2023/11/10 04:41:05;;;;;;;0.55;0.55;;;;;;;;;;5062292;28;20392;-82
2023/11/10 04:43:31;;;;;;;0.47;0.43;;;;;;;;;;5053380;28;20631;-82
2023/11/10 04:45:57;;;;;;;0.57;0.57;;;;;;;;;;5053434;28;20020;-83
2023/11/10 04:48:29;;;;;;;0.55;0.55;;;;;;;;;;5051933;28;20036;-82
2023/11/10 04:50:55;;;;;;;0.30;0.30;;;;;;;;;;5071663;28;20153;-81
2023/11/10 04:53:21;;;;;;;0.50;0.50;;;;;;;;;;5086375;28;20020;-85
2023/11/10 04:55:47;;;;;;;0.35;0.30;;;;;;;;;;5052607;28;20033;-85
2023/11/10 04:58:13;;;;;;;0.80;0.50;;;;;;;;;;5072194;28;20447;-85
2023/11/10 05:00:39;;;;;;;0.30;0.30;;;;;;;;;;5066965;28;20024;-84
2023/11/10 05:03:06;;;;;;;0.30;0.30;;;;;;;;;;5068977;28;20038;-85
2023/11/10 05:05:32;;;;;;;0.30;0.30;;;;;;;;;;5051477;28;20021;-86
2023/11/10 05:07:59;;;;;;;0.30;0.30;;;;;;;;;;5074574;28;20520;-83
2023/11/10 05:10:25;;;;;;;0.28;0.28;;;;;;;;;;5079067;28;20020;-86
2023/11/10 05:12:52;;;;;;;0.60;0.20;;;;;;;;;;5065903;28;20039;-85
2023/11/10 05:15:18;;;;;;;0.30;0.30;;;;;;;;;;5066819;28;20029;-85
2023/11/10 05:17:44;;;;;;;0.22;0.22;;;;;;;;;;5086149;28;20052;-85
2023/11/10 05:20:11;;;;;;;0.30;0.20;;;;;;;;;;5071800;28;20025;-85
2023/11/10 05:22:43;;;;;;;0.50;0.40;;;;;;;;;;5080710;28;20086;-86
2023/11/10 05:25:13;;;;;;;0.30;0.30;;;;;;;;;;5072073;28;20045;-84
2023/11/10 05:27:39;;;;;;;0.40;0.40;;;;;;;;;;5067602;28;20516;-84
2023/11/10 05:30:12;;;;;;;0.40;0.38;;;;;;;;;;5072832;28;20085;-83
2023/11/10 05:32:38;;;;;;;0.30;0.30;;;;;;;;;;5072368;28;20037;-78
2023/11/10 05:35:04;;;;;;;0.30;0.30;;;;;;;;;;5092803;28;20119;-81
2023/11/10 05:37:30;;;;;;;0.35;0.35;;;;;;;;;;5079180;28;20036;-83
2023/11/10 05:39:59;;;;;;;0.40;0.40;;;;;;;;;;5099257;28;20028;-83
2023/11/10 05:42:25;;;;;;;0.40;0.35;;;;;;;;;;5102693;28;20151;-82
2023/11/10 05:44:51;;;;;;;0.50;0.50;;;;;;;;;;5087746;28;20056;-82
2023/11/10 05:47:18;;;;;;;0.55;0.55;;;;;;;;;;5072178;28;20024;-81
2023/11/10 05:49:44;;;;;;;0.80;0.28;;;;;;;;;;5085833;28;20475;-82
2023/11/10 05:52:11;;;;;;;0.95;0.30;;;;;;;;;;5069664;28;20089;-83
2023/11/10 05:54:39;;;;;;;0.65;0.60;;;;;;;;;;5064629;28;20067;-81
2023/11/10 05:57:06;;;;;;;1.40;0.77;;;;;;;;;;5070716;28;20023;-82
2023/11/10 05:59:32;;;;;;;0.73;0.40;;;;;;;;;;5068965;28;20111;-80
2023/11/10 06:02:00;;;;;;;0.52;0.45;;;;;;;;;;5093534;28;20486;-81
2023/11/10 06:04:26;;;;;;;0.65;0.60;;;;;;;;;;5075852;28;20494;-81
2023/11/10 06:06:52;;;;;;;0.70;0.60;;;;;;;;;;5073786;28;20076;-82
2023/11/10 06:09:22;;;;;;;0.88;0.82;;;;;;;;;;5098499;28;20462;-81
2023/11/10 06:11:52;;;;;;;0.60;0.60;;;;;;;;;;5064576;28;20027;-80
2023/11/10 06:14:18;;;;;;;0.75;0.60;;;;;;;;;;5080411;28;20024;-84
2023/11/10 06:16:44;;;;;;;0.85;0.60;;;;;;;;;;5086090;28;20032;-81
2023/11/10 06:19:11;;;;;;;0.63;0.50;;;;;;;;;;5071890;28;20029;-82
2023/11/10 06:21:37;;;;;;;0.40;0.40;;;;;;;;;;5059298;28;20044;-82
2023/11/10 06:24:03;;;;;;;0.55;0.50;;;;;;;;;;5095067;28;20076;-82
2023/11/10 06:26:30;;;;;;;0.65;0.52;;;;;;;;;;5073399;28;20040;-82
2023/11/10 06:28:58;;;;;;;0.85;0.60;;;;;;;;;;5076235;28;20021;-82
2023/11/10 06:31:24;;;;;;;1.42;0.90;;;;;;;;;;5103520;28;20016;-83
2023/11/10 06:33:51;;;;;;;0.68;0.68;;;;;;;;;;5104448;28;20032;-82
2023/11/10 06:36:17;;;;;;;0.65;0.50;;;;;;;;;;5114808;28;20032;-83
2023/11/10 06:38:44;;;;;;;0.45;0.45;;;;;;;;;;5099188;28;20017;-83
2023/11/10 06:41:10;;;;;;;0.70;0.68;;;;;;;;;;5083254;28;20064;-83
2023/11/10 06:43:37;;;;;;;0.50;0.50;;;;;;;;;;5085688;28;20052;-83
2023/11/10 06:46:04;;;;;;;0.60;0.60;;;;;;;;;;5082891;28;20029;-84
2023/11/10 06:48:30;;;;;;;1.00;0.70;;;;;;;;;;5087340;28;20085;-82
2023/11/10 06:50:56;;;;;;;0.68;0.68;;;;;;;;;;5085618;28;20054;-82
2023/11/10 06:53:22;;;;;;;0.70;0.70;;;;;;;;;;5060025;28;20020;-83
2023/11/10 06:55:49;;;;;;;0.60;0.60;;;;;;;;;;5054074;28;20056;-83
2023/11/10 06:58:17;;;;;;;0.90;0.70;;;;;;;;;;5086356;28;20387;-82
2023/11/10 07:00:45;;;;;;;0.93;0.55;;;;;;;;;;5073315;28;20016;-82
2023/11/10 07:03:14;;;;;;;1.48;0.90;;;;;;;;;;5073455;28;20414;-83
2023/11/10 07:05:40;;;;;;;0.73;0.73;;;;;;;;;;5065287;28;20032;-82
2023/11/10 07:08:09;;;;;;;0.73;0.60;;;;;;;;;;5099173;28;20252;-81
2023/11/10 07:10:47;;;;;;;1.20;0.73;;;;;;;;;;5089013;28;20095;-82
2023/11/10 07:13:14;;;;;;;1.00;0.75;;;;;;;;;;5071877;28;20095;-83
2023/11/10 07:15:40;;;;;;;1.10;0.73;;;;;;;;;;5065225;28;20096;-83
2023/11/10 07:18:07;;;;;;;0.60;0.60;;;;;;;;;;5078722;28;20062;-82
2023/11/10 07:20:34;;;;;;;0.80;0.68;;;;;;;;;;5088344;28;20059;-86
2023/11/10 07:23:00;;;;;;;0.60;0.50;;;;;;;;;;5081882;28;20060;-83
2023/11/10 07:25:28;;;;;;;0.60;0.60;;;;;;;;;;5069475;28;20038;-84
2023/11/10 07:27:55;;;;;;;0.50;0.50;;;;;;;;;;5086989;28;20021;-81
2023/11/10 07:30:22;;;;;;;0.63;0.63;;;;;;;;;;5072739;28;20021;-83
2023/11/10 07:32:49;;;;;;;0.63;0.63;;;;;;;;;;5078126;28;20035;-83
2023/11/10 07:35:15;;;;;;;1.65;0.70;;;;;;;;;;5064151;28;20025;-81
2023/11/10 07:37:45;;;;;;;1.85;1.50;;;;;;;;;;5092804;28;20037;-81
2023/11/10 07:40:12;;;;;;;1.00;0.90;;;;;;;;;;5093877;28;20063;-82
2023/11/10 07:42:42;;;;;;;2.50;1.02;;;;;;;;;;5081510;28;20029;-82
2023/11/10 07:45:14;;;;;;;1.00;0.88;;;;;;;;;;5079002;28;20035;-84
2023/11/10 07:47:40;;;;;;;1.42;1.17;;;;;;;;;;5078929;28;20001;-84
2023/11/10 07:50:07;;;;;;;1.10;1.00;;;;;;;;;;5078868;28;20032;-84
2023/11/10 07:52:33;;;;;;;0.80;0.80;;;;;;;;;;5066810;28;20139;-81
2023/11/10 07:54:59;;;;;;;1.13;0.90;;;;;;;;;;5093480;28;20042;-84
2023/11/10 07:57:28;;;;;;;0.75;0.75;;;;;;;;;;5075563;28;20025;-83
2023/11/10 07:59:54;;;;;;;1.33;0.85;;;;;;;;;;5073612;28;20043;-82
2023/11/10 08:02:20;;;;;;;1.55;0.90;;;;;;;;;;5080740;28;20028;-84
2023/11/10 08:04:47;;;;;;;2.08;0.93;;;;;;;;;;5054703;28;20043;-84
2023/11/10 08:07:13;;;;;;;0.88;0.75;;;;;;;;;;5063787;28;20080;-83
2023/11/10 08:09:40;;;;;;;0.85;0.68;;;;;;;;;;5081805;28;20025;-84
2023/11/10 08:12:07;;;;;;;1.85;1.20;;;;;;;;;;5086587;28;20020;-83
2023/11/10 08:14:33;;;;;;;1.38;1.02;;;;;;;;;;5055143;28;20036;-84
2023/11/10 08:16:59;;;;;;;1.20;1.00;;;;;;;;;;5060861;28;20040;-83
2023/11/10 08:22:30;;;;;;;1.70;0.85;;;;;;;;;;5062943;28;20040;-84
2023/11/10 08:24:56;;;;;;;1.25;1.15;;;;;;;;;;5079831;28;20028;-83
2023/11/10 08:27:23;;;;;;;2.22;1.30;;;;;;;;;;5046749;28;20036;-83
2023/11/10 08:29:49;;;;;;;3.20;0.70;;;;;;;;;;5053192;28;20078;-84
2023/11/10 08:32:15;;;;;;;1.00;0.90;;;;;;;;;;5061821;28;20031;-85
2023/11/10 08:34:47;;;;;;;0.68;0.68;;;;;;;;;;5071115;28;20078;-84
2023/11/10 08:37:13;;;;;;;0.70;0.60;;;;;;;;;;5061497;28;20017;-85
2023/11/10 08:39:40;;;;;;;0.95;0.70;;;;;;;;;;5066032;28;20032;-84
2023/11/10 08:42:06;;;;;;;1.25;0.90;;;;;;;;;;5100141;28;20039;-84
2023/11/10 08:44:35;;;;;;;1.42;0.50;;;;;;;;;;5081906;28;20032;-84
2023/11/10 08:47:01;;;;;;;0.70;0.70;;;;;;;;;;5098068;28;20008;-84
2023/11/10 08:49:32;;;;;;;1.42;0.90;;;;;;;;;;5084190;28;20033;-84
2023/11/10 08:51:59;;;;;;;5.05;0.88;;;;;;;;;;5079778;28;20031;-83
2023/11/10 08:54:33;;;;;;;0.98;0.52;;;;;;;;;;5083207;28;20040;-84
2023/11/10 08:56:59;;;;;;;1.17;0.60;;;;;;;;;;5076969;28;20021;-83
2023/11/10 08:59:30;;;;;;;2.15;0.70;;;;;;;;;;5062803;28;20154;-84
2023/11/10 09:01:56;;;;;;;0.57;0.40;;;;;;;;;;5076128;28;20025;-83
2023/11/10 09:04:22;;;;;;;1.10;0.75;;;;;;;;;;5046791;28;20040;-84
2023/11/10 09:06:48;;;;;;;0.40;0.40;;;;;;;;;;5076066;28;20313;-84
2023/11/10 09:09:14;;;;;;;0.40;0.35;;;;;;;;;;5080644;28;20633;-84
2023/11/10 09:11:40;;;;;;;1.27;0.60;;;;;;;;;;5084138;28;20447;-84
2023/11/10 09:14:07;;;;;;;1.23;0.50;;;;;;;;;;5067889;28;20137;-82
2023/11/10 09:16:33;;;;;;;0.75;0.50;;;;;;;;;;5085052;28;20020;-83
2023/11/10 09:18:59;;;;;;;0.40;0.40;;;;;;;;;;5082644;28;20047;-83
2023/11/10 09:21:26;;;;;;;0.65;0.30;;;;;;;;;;5086653;28;20020;-82
2023/11/10 09:23:54;;;;;;;2.25;0.50;;;;;;;;;;5083041;28;20024;-84
2023/11/10 09:26:20;;;;;;;0.30;0.30;;;;;;;;;;5082707;28;20016;-84
2023/11/10 09:28:48;;;;;;;1.40;0.30;;;;;;;;;;5083172;28;20090;-83
2023/11/10 09:31:25;;;;;;;0.80;0.40;;;;;;;;;;5068677;28;20016;-83
2023/11/10 09:33:53;;;;;;;0.30;0.20;;;;;;;;;;5075397;28;20044;-84
2023/11/10 09:36:19;;;;;;;0.40;0.32;;;;;;;;;;5075888;28;20016;-82
2023/11/10 09:38:46;;;;;;;0.50;0.32;;;;;;;;;;5081196;28;20044;-84
2023/11/10 09:41:16;;;;;;;0.30;0.30;;;;;;;;;;5075908;28;20068;-84
2023/11/10 09:43:45;;;;;;;0.70;0.43;;;;;;;;;;5059599;28;20116;-83
2023/11/10 09:46:13;;;;;;;0.35;0.25;;;;;;;;;;5068643;28;20020;-84
2023/11/10 09:48:40;;;;;;;1.30;0.40;;;;;;;;;;5083106;28;20457;-83
2023/11/10 09:51:07;;;;;;;0.45;0.30;;;;;;;;;;5072047;28;20028;-84
2023/11/10 09:53:34;;;;;;;0.90;0.38;;;;;;;;;;5083528;28;20024;-84
2023/11/10 09:56:00;;;;;;;0.20;0.17;;;;;;;;;;5067662;28;20024;-84
2023/11/10 09:58:28;;;;;;;0.20;0.20;;;;;;;;;;5090210;28;20028;-83
2023/11/10 10:01:00;;;;;;;2.42;0.38;;;;;;;;;;5073325;28;20047;-83
2023/11/10 10:03:28;;;;;;;0.35;0.30;;;;;;;;;;5081442;28;20040;-82
2023/11/10 10:05:54;;;;;;;0.28;0.20;;;;;;;;;;5090046;28;20020;-81
2023/11/10 10:08:20;;;;;;;0.22;0.22;;;;;;;;;;5097578;28;20013;-82
2023/11/10 10:10:53;;;;;;;0.28;0.28;;;;;;;;;;5095476;28;20036;-83
2023/11/10 10:13:22;;;;;;;;;;;;;;;;;;5098822;28;20016;-83
2023/11/10 10:15:56;;;;;;;0.20;0.20;;;;;;;;;;5071099;28;19912;-83
2023/11/10 10:18:33;;;;;;;0.55;0.20;;;;;;;;;;5059333;28;20028;-86
2023/11/10 10:21:11;;;;;;;0.43;0.20;;;;;;;;;;5091587;28;20016;-85
2023/11/10 10:24:01;;;;;;;0.25;0.25;;;;;;;;;;5085382;28;20043;-83
2023/11/10 10:26:36;;;;;;;0.40;0.30;;;;;;;;;;5072379;28;20097;-86
2023/11/10 10:29:29;;;;;;;0.73;0.60;;;;;;;;;;5091020;28;20080;-84
2023/11/10 10:31:56;;;;;;;0.35;0.35;;;;;;;;;;5061444;28;20156;-83
2023/11/10 10:34:26;;;;;;;1.58;0.40;;;;;;;;;;5062804;28;20024;-83
2023/11/10 10:37:18;;;;;;;0.30;0.30;;;;;;;;;;5089928;28;20082;-82
2023/11/10 10:39:52;;;;;;;0.30;0.30;;;;;;;;;;5091559;28;20032;-83
2023/11/10 10:42:20;;;;;;;0.20;0.20;;;;;;;;;;5093255;28;20081;-84
2023/11/10 10:44:55;;;;;;;0.90;0.43;;;;;;;;;;5074562;28;20036;-83
2023/11/10 10:47:44;;;;;;;0.47;0.38;;;;;;;;;;5082781;28;20028;-83
2023/11/10 10:50:12;;;;;;;0.50;0.47;;;;;;;;;;5083066;28;20028;-84
2023/11/10 10:52:38;;;;;;;0.50;0.40;;;;;;;;;;5087005;28;20105;-83
2023/11/10 10:55:09;;;;;;;0.35;0.25;;;;;;;;;;5068364;28;20033;-84
2023/11/10 10:57:37;;;;;;;0.25;0.20;;;;;;;;;;5086677;28;20086;-84
2023/11/10 11:00:16;;;;;;;0.25;0.22;;;;;;;;;;5062142;28;20051;-83
2023/11/10 11:02:51;;;;;;;1.95;0.30;;;;;;;;;;5083643;28;20088;-84
2023/11/10 11:05:21;;;;;;;1.25;0.30;;;;;;;;;;5077692;28;20111;-85
2023/11/10 11:08:23;;;;;;;0.30;0.30;;;;;;;;;;5068486;28;20096;-84
2023/11/10 11:11:00;;;;;;;1.50;0.15;;;;;;;;;;5069105;28;20078;-82
2023/11/10 11:13:34;;;;;;;0.30;0.30;;;;;;;;;;5074842;28;20047;-82
2023/11/10 11:16:07;;;;;;;0.13;0.13;;;;;;;;;;5085161;28;20037;-84
2023/11/10 11:18:42;;;;;;;0.15;0.13;;;;;;;;;;5064767;28;20032;-82
2023/11/10 11:21:13;;;;;;;0.10;0.10;;;;;;;;;;5077477;28;20441;-82
2023/11/10 11:23:40;;;;;;;0.82;0.10;;;;;;;;;;5064807;28;20390;-82
2023/11/10 11:26:06;;;;;;;0.20;0.20;;;;;;;;;;5064037;28;20024;-82
2023/11/10 11:28:36;;;;;;;0.22;0.22;;;;;;;;;;5083107;28;20025;-82
2023/11/10 11:31:10;;;;;;;0.25;0.25;;;;;;;;;;5083726;28;20012;-83
2023/11/10 11:33:52;;;;;;;0.32;0.30;;;;;;;;;;5079208;28;20048;-82
2023/11/10 11:36:18;;;;;;;0.82;0.50;;;;;;;;;;5087947;28;20031;-82
2023/11/10 11:38:48;;;;;;;0.38;0.30;;;;;;;;;;5088026;28;20036;-80
2023/11/10 11:41:15;;;;;;;0.65;0.60;;;;;;;;;;5080742;28;20100;-81
2023/11/10 11:44:08;;;;;;;0.82;0.55;;;;;;;;;;5061664;28;20021;-82
2023/11/10 11:46:35;;;;;;;0.30;0.30;;;;;;;;;;5070488;28;20102;-83
2023/11/10 11:49:02;;;;;;;0.63;0.45;;;;;;;;;;5072841;28;20186;-83
2023/11/10 11:51:30;;;;;;;0.40;0.40;;;;;;;;;;5077463;28;20435;-82
2023/11/10 11:53:56;;;;;;;0.38;0.38;;;;;;;;;;5068050;28;20032;-82
2023/11/10 11:56:27;;;;;;;2.95;0.50;;;;;;;;;;5066707;28;20024;-83
2023/11/10 11:58:53;;;;;;;0.40;0.40;;;;;;;;;;5073314;28;20040;-83
2023/11/10 12:01:19;;;;;;;0.15;0.15;;;;;;;;;;5087406;28;20080;-84
2023/11/10 12:03:48;;;;;;;0.20;0.20;;;;;;;;;;5090048;28;20035;-83
2023/11/10 12:06:14;;;;;;;0.30;0.25;;;;;;;;;;5077459;28;20032;-81
2023/11/10 12:08:40;;;;;;;0.20;0.20;;;;;;;;;;5080335;28;20028;-85
2023/11/10 12:11:08;;;;;;;0.15;0.15;;;;;;;;;;5079565;28;20182;-84
2023/11/10 12:13:35;;;;;;;0.45;0.30;;;;;;;;;;5070358;28;20037;-83
2023/11/10 12:16:11;;;;;;;0.50;0.30;;;;;;;;;;5072294;28;20035;-83
2023/11/10 12:18:37;;;;;;;0.32;0.25;;;;;;;;;;5080539;28;20482;-83
2023/11/10 12:21:10;;;;;;;0.68;0.30;;;;;;;;;;5077770;28;20029;-83
2023/11/10 12:23:37;;;;;;;0.40;0.30;;;;;;;;;;5071554;28;20028;-83
2023/11/10 12:26:10;;;;;;;0.40;0.40;;;;;;;;;;5082825;28;20494;-83
2023/11/10 12:28:36;;;;;;;0.55;0.38;;;;;;;;;;5071609;28;20029;-85
2023/11/10 12:31:02;;;;;;;0.32;0.30;;;;;;;;;;5071164;28;20029;-83
2023/11/10 12:33:29;;;;;;;0.57;0.57;;;;;;;;;;5088791;28;20021;-84
2023/11/10 12:36:13;;;;;;;0.85;0.40;;;;;;;;;;5066349;28;20023;-86
2023/11/10 12:39:10;;;;;;;0.50;0.45;;;;;;;;;;5039233;28;20081;-86
2023/11/10 12:41:51;;;;;;;0.70;0.60;;;;;;;;;;5042467;28;20038;-85
2023/11/10 12:44:19;;;;;;;0.45;0.40;;;;;;;;;;5014499;28;20030;-86
2023/11/10 12:47:21;;;;;;;1.15;0.32;;;;;;;;;;4988625;28;20118;-84
2023/11/10 12:50:22;;;;;;;0.30;0.30;;;;;;;;;;4948385;29;20445;-85
2023/11/10 12:53:07;;;;;;;0.20;0.20;;;;;;;;;;4968911;28;20046;-84
2023/11/10 12:55:43;;;;;;;0.60;0.38;;;;;;;;;;4986698;28;20091;-84
2023/11/10 12:58:43;;;;;;;0.45;0.40;;;;;;;;;;4997642;28;20027;-85
2023/11/10 13:01:50;;;;;;;0.30;0.30;;;;;;;;;;5003214;28;20489;-85
2023/11/10 13:07:46;;;;;;;0.28;0.28;;;;;;;;;;5000823;28;20169;-86
2023/11/10 13:10:59;;;;;;;;;;;;;;;;;;;;;
2023/11/10 13:22:48;;;;;;;0.80;0.40;;;;;;;;;;4987557;28;20078;-85
2023/11/10 13:31:51;;;;;;;;;;;;;;;;;;4935620;29;20084;-84
2023/11/10 13:34:37;;;;;;;0.52;0.22;;;;;;;;;;4926756;29;19917;-84
2023/11/10 13:37:42;;;;;;;0.95;0.50;;;;;;;;;;4927304;29;20051;-85
2023/11/10 13:43:46;;;;;;;0.40;0.30;;;;;;;;;;4934669;29;20051;-86
2023/11/10 13:49:37;;;;;;;0.93;0.50;;;;;;;;;;4954122;29;20058;-86
2023/11/10 13:52:26;;;;;;;0.52;0.30;;;;;;;;;;4964177;28;20023;-84
2023/11/10 13:54:54;;;;;;;0.55;0.50;;;;;;;;;;4984363;28;20047;-85
2023/11/10 13:57:39;;;;;;;1.08;0.43;;;;;;;;;;5027404;28;20373;-84
2023/11/10 14:00:11;;;;;;;1.85;0.20;;;;;;;;;;5031959;28;20366;-86
2023/11/10 14:02:37;;;;;;;;;;;;;;;;;;5029905;28;20451;-84
2023/11/10 14:05:04;;;;;;;0.30;0.30;;;;;;;;;;5038248;28;19906;-84
2023/11/10 14:07:32;;;;;;;0.50;0.50;;;;;;;;;;5029326;28;20081;-85
2023/11/10 14:09:58;;;;;;;0.47;0.32;;;;;;;;;;5020550;28;20273;-83
2023/11/10 14:12:30;;;;;;;0.55;0.38;;;;;;;;;;5042591;28;20025;-83
2023/11/10 14:14:56;;;;;;;;;;;;;;;;;;5052224;28;20052;-84
2023/11/10 14:17:22;;;;;;;0.32;0.32;;;;;;;;;;5095802;28;19915;-85
2023/11/10 14:19:48;;;;;;;0.68;0.35;;;;;;;;;;5092057;28;20029;-83
2023/11/10 14:22:14;;;;;;;0.43;0.40;;;;;;;;;;5064189;28;20108;-82
2023/11/10 14:24:40;;;;;;;0.50;0.43;;;;;;;;;;5073579;28;20017;-83
2023/11/10 14:27:06;;;;;;;2.42;0.40;;;;;;;;;;5088627;28;20020;-83
2023/11/10 14:29:32;;;;;;;0.40;0.35;;;;;;;;;;5074770;28;20104;-83
2023/11/10 14:31:59;;;;;;;0.95;0.30;;;;;;;;;;5085731;28;20028;-81
2023/11/10 14:34:28;;;;;;;0.20;0.20;;;;;;;;;;5066010;28;20028;-82
2023/11/10 14:36:55;;;;;;;0.45;0.25;;;;;;;;;;5090252;28;20071;-84
2023/11/10 14:39:21;;;;;;;1.00;0.50;;;;;;;;;;5075249;28;20079;-82
2023/11/10 14:41:51;;;;;;;0.57;0.40;;;;;;;;;;5054199;28;20031;-83
2023/11/10 14:44:18;;;;;;;0.68;0.40;;;;;;;;;;5088966;28;20023;-82
2023/11/10 14:46:46;;;;;;;0.52;0.40;;;;;;;;;;5064674;28;20017;-83
2023/11/10 14:49:14;;;;;;;2.50;0.52;;;;;;;;;;5080951;28;20013;-83
2023/11/10 14:51:45;;;;;;;2.90;0.50;;;;;;;;;;5078902;28;20432;-83
2023/11/10 14:54:17;;;;;;;2.85;0.60;;;;;;;;;;5080526;28;20256;-83
2023/11/10 14:56:43;;;;;;;2.60;0.57;;;;;;;;;;5081933;28;20024;-83
2023/11/10 14:59:12;;;;;;;0.45;0.45;;;;;;;;;;5081509;28;20021;-81
2023/11/10 15:01:38;;;;;;;0.38;0.32;;;;;;;;;;5074800;28;20043;-83
2023/11/10 15:04:05;;;;;;;0.30;0.30;;;;;;;;;;5081674;28;20017;-83
2023/11/10 15:06:32;;;;;;;1.40;0.50;;;;;;;;;;5074898;28;20045;-84
2023/11/10 15:08:58;;;;;;;0.50;0.20;;;;;;;;;;5082100;28;20427;-82
2023/11/10 15:11:24;;;;;;;0.63;0.17;;;;;;;;;;5098332;28;20027;-82
2023/11/10 15:13:53;;;;;;;0.20;0.20;;;;;;;;;;5063714;28;20493;-81
2023/11/10 15:16:20;;;;;;;3.15;0.40;;;;;;;;;;5080340;28;20020;-82
2023/11/10 15:18:46;;;;;;;0.88;0.20;;;;;;;;;;5069155;28;20032;-83
2023/11/10 15:21:12;;;;;;;0.20;0.20;;;;;;;;;;5071030;28;20020;-83
2023/11/10 15:23:39;;;;;;;0.25;0.25;;;;;;;;;;5081557;28;20047;-82
2023/11/10 15:26:07;;;;;;;0.60;0.20;;;;;;;;;;5062896;28;20024;-81